sensor_id;sensor_type;location;lat;lon;timestamp;P1;durP1;ratioP1;P2;durP2;ratioP2
18166;SDS011;9208;42.688;23.404;2023-04-01T00:00:50;8.83;;;6.77;;
18166;SDS011;9208;42.688;23.404;2023-04-01T00:03:17;7.23;;;6.30;;
18166;SDS011;9208;42.688;23.404;2023-04-01T00:05:43;9.00;;;6.23;;
18166;SDS011;9208;42.688;23.404;2023-04-01T00:08:08;6.77;;;6.07;;
18166;SDS011;9208;42.688;23.404;2023-04-01T00:10:34;7.80;;;6.40;;
18166;SDS011;9208;42.688;23.404;2023-04-01T00:12:59;8.83;;;6.50;;
18166;SDS011;9208;42.688;23.404;2023-04-01T00:15:25;9.27;;;7.10;;
18166;SDS011;9208;42.688;23.404;2023-04-01T00:17:51;9.77;;;6.60;;
18166;SDS011;9208;42.688;23.404;2023-04-01T00:20:16;8.07;;;6.33;;
18166;SDS011;9208;42.688;23.404;2023-04-01T00:22:42;11.07;;;6.53;;
18166;SDS011;9208;42.688;23.404;2023-04-01T00:25:07;9.53;;;6.83;;
18166;SDS011;9208;42.688;23.404;2023-04-01T00:27:33;11.60;;;7.20;;
18166;SDS011;9208;42.688;23.404;2023-04-01T00:29:59;9.27;;;7.43;;
18166;SDS011;9208;42.688;23.404;2023-04-01T00:32:24;10.20;;;8.07;;
18166;SDS011;9208;42.688;23.404;2023-04-01T00:34:51;10.10;;;8.13;;
18166;SDS011;9208;42.688;23.404;2023-04-01T00:37:17;10.37;;;8.70;;
18166;SDS011;9208;42.688;23.404;2023-04-01T00:39:44;11.60;;;8.30;;
18166;SDS011;9208;42.688;23.404;2023-04-01T00:42:09;9.13;;;7.90;;
18166;SDS011;9208;42.688;23.404;2023-04-01T00:44:40;9.47;;;8.00;;
18166;SDS011;9208;42.688;23.404;2023-04-01T00:47:06;10.00;;;8.17;;
18166;SDS011;9208;42.688;23.404;2023-04-01T00:49:42;10.97;;;7.60;;
18166;SDS011;9208;42.688;23.404;2023-04-01T00:52:11;10.27;;;7.80;;
18166;SDS011;9208;42.688;23.404;2023-04-01T00:54:41;11.30;;;7.83;;
18166;SDS011;9208;42.688;23.404;2023-04-01T00:57:21;9.27;;;7.27;;
18166;SDS011;9208;42.688;23.404;2023-04-01T00:59:52;9.83;;;7.13;;
18166;SDS011;9208;42.688;23.404;2023-04-01T01:02:20;11.33;;;7.20;;
18166;SDS011;9208;42.688;23.404;2023-04-01T01:04:48;11.33;;;7.30;;
18166;SDS011;9208;42.688;23.404;2023-04-01T01:15:15;9.53;;;6.60;;
18166;SDS011;9208;42.688;23.404;2023-04-01T01:18:05;12.67;;;7.10;;
18166;SDS011;9208;42.688;23.404;2023-04-01T01:37:31;9.93;;;5.93;;
18166;SDS011;9208;42.688;23.404;2023-04-01T01:40:04;10.17;;;6.77;;
18166;SDS011;9208;42.688;23.404;2023-04-01T01:42:33;10.07;;;7.07;;
18166;SDS011;9208;42.688;23.404;2023-04-01T01:45:02;8.97;;;6.30;;
18166;SDS011;9208;42.688;23.404;2023-04-01T01:47:30;9.53;;;5.87;;
18166;SDS011;9208;42.688;23.404;2023-04-01T01:49:57;6.70;;;5.20;;
18166;SDS011;9208;42.688;23.404;2023-04-01T01:52:26;7.57;;;5.90;;
18166;SDS011;9208;42.688;23.404;2023-04-01T01:54:53;9.87;;;5.33;;
18166;SDS011;9208;42.688;23.404;2023-04-01T01:57:24;7.90;;;5.13;;
18166;SDS011;9208;42.688;23.404;2023-04-01T01:59:55;7.40;;;5.00;;
18166;SDS011;9208;42.688;23.404;2023-04-01T02:02:26;5.93;;;5.00;;
18166;SDS011;9208;42.688;23.404;2023-04-01T02:04:56;8.90;;;5.70;;
18166;SDS011;9208;42.688;23.404;2023-04-01T02:07:27;8.23;;;5.20;;
18166;SDS011;9208;42.688;23.404;2023-04-01T02:09:57;8.83;;;5.43;;
18166;SDS011;9208;42.688;23.404;2023-04-01T02:12:22;10.83;;;5.80;;
18166;SDS011;9208;42.688;23.404;2023-04-01T02:14:53;6.93;;;5.70;;
18166;SDS011;9208;42.688;23.404;2023-04-01T02:17:23;9.43;;;5.43;;
18166;SDS011;9208;42.688;23.404;2023-04-01T02:19:54;7.50;;;5.43;;
18166;SDS011;9208;42.688;23.404;2023-04-01T02:22:24;7.00;;;5.47;;
18166;SDS011;9208;42.688;23.404;2023-04-01T02:25:17;9.27;;;5.63;;
18166;SDS011;9208;42.688;23.404;2023-04-01T02:27:45;8.67;;;6.00;;
18166;SDS011;9208;42.688;23.404;2023-04-01T02:30:12;10.43;;;6.47;;
18166;SDS011;9208;42.688;23.404;2023-04-01T02:32:40;7.50;;;6.20;;
18166;SDS011;9208;42.688;23.404;2023-04-01T02:35:10;7.23;;;5.47;;
18166;SDS011;9208;42.688;23.404;2023-04-01T02:37:38;7.00;;;5.97;;
18166;SDS011;9208;42.688;23.404;2023-04-01T02:40:09;10.87;;;6.47;;
18166;SDS011;9208;42.688;23.404;2023-04-01T02:42:37;10.47;;;6.10;;
18166;SDS011;9208;42.688;23.404;2023-04-01T02:45:04;8.60;;;6.23;;
18166;SDS011;9208;42.688;23.404;2023-04-01T02:47:30;10.97;;;7.90;;
18166;SDS011;9208;42.688;23.404;2023-04-01T02:49:56;8.27;;;6.50;;
18166;SDS011;9208;42.688;23.404;2023-04-01T02:52:27;13.63;;;6.93;;
18166;SDS011;9208;42.688;23.404;2023-04-01T02:54:54;8.10;;;6.60;;
18166;SDS011;9208;42.688;23.404;2023-04-01T02:57:20;8.53;;;7.63;;
18166;SDS011;9208;42.688;23.404;2023-04-01T02:59:45;12.43;;;7.27;;
18166;SDS011;9208;42.688;23.404;2023-04-01T03:02:11;9.87;;;7.70;;
18166;SDS011;9208;42.688;23.404;2023-04-01T03:04:37;7.80;;;7.00;;
18166;SDS011;9208;42.688;23.404;2023-04-01T03:07:02;12.33;;;7.73;;
18166;SDS011;9208;42.688;23.404;2023-04-01T03:09:28;8.53;;;6.70;;
18166;SDS011;9208;42.688;23.404;2023-04-01T03:11:53;8.77;;;6.67;;
18166;SDS011;9208;42.688;23.404;2023-04-01T03:14:19;10.17;;;7.07;;
18166;SDS011;9208;42.688;23.404;2023-04-01T03:16:45;11.53;;;7.23;;
18166;SDS011;9208;42.688;23.404;2023-04-01T03:19:13;7.33;;;6.53;;
18166;SDS011;9208;42.688;23.404;2023-04-01T03:21:38;11.70;;;6.90;;
18166;SDS011;9208;42.688;23.404;2023-04-01T03:24:07;9.87;;;7.03;;
18166;SDS011;9208;42.688;23.404;2023-04-01T03:26:33;10.07;;;7.20;;
18166;SDS011;9208;42.688;23.404;2023-04-01T03:28:58;10.47;;;6.67;;
18166;SDS011;9208;42.688;23.404;2023-04-01T03:31:26;11.60;;;7.37;;
18166;SDS011;9208;42.688;23.404;2023-04-01T03:33:52;9.77;;;6.90;;
18166;SDS011;9208;42.688;23.404;2023-04-01T03:36:17;9.00;;;7.30;;
18166;SDS011;9208;42.688;23.404;2023-04-01T03:38:43;11.03;;;6.87;;
18166;SDS011;9208;42.688;23.404;2023-04-01T03:41:12;12.47;;;8.07;;
18166;SDS011;9208;42.688;23.404;2023-04-01T03:43:39;10.67;;;8.07;;
18166;SDS011;9208;42.688;23.404;2023-04-01T03:46:04;12.17;;;7.90;;
18166;SDS011;9208;42.688;23.404;2023-04-01T03:48:30;10.90;;;8.03;;
18166;SDS011;9208;42.688;23.404;2023-04-01T03:50:55;12.10;;;7.97;;
18166;SDS011;9208;42.688;23.404;2023-04-01T03:53:21;12.47;;;8.37;;
18166;SDS011;9208;42.688;23.404;2023-04-01T03:55:47;11.33;;;8.23;;
18166;SDS011;9208;42.688;23.404;2023-04-01T03:58:12;12.57;;;8.00;;
18166;SDS011;9208;42.688;23.404;2023-04-01T04:00:38;11.83;;;8.37;;
18166;SDS011;9208;42.688;23.404;2023-04-01T04:03:03;11.20;;;8.90;;
18166;SDS011;9208;42.688;23.404;2023-04-01T04:05:30;9.60;;;7.63;;
18166;SDS011;9208;42.688;23.404;2023-04-01T04:07:56;12.90;;;8.07;;
18166;SDS011;9208;42.688;23.404;2023-04-01T04:10:21;10.50;;;7.47;;
18166;SDS011;9208;42.688;23.404;2023-04-01T04:12:48;10.47;;;7.87;;
18166;SDS011;9208;42.688;23.404;2023-04-01T04:15:14;9.57;;;7.10;;
18166;SDS011;9208;42.688;23.404;2023-04-01T04:17:40;8.80;;;7.27;;
18166;SDS011;9208;42.688;23.404;2023-04-01T04:20:05;7.73;;;6.47;;
18166;SDS011;9208;42.688;23.404;2023-04-01T04:22:31;8.27;;;6.63;;
18166;SDS011;9208;42.688;23.404;2023-04-01T04:24:56;8.03;;;6.53;;
18166;SDS011;9208;42.688;23.404;2023-04-01T04:27:22;7.47;;;6.50;;
18166;SDS011;9208;42.688;23.404;2023-04-01T04:29:47;9.67;;;6.50;;
18166;SDS011;9208;42.688;23.404;2023-04-01T04:32:12;6.83;;;6.13;;
18166;SDS011;9208;42.688;23.404;2023-04-01T04:34:38;8.57;;;6.13;;
18166;SDS011;9208;42.688;23.404;2023-04-01T04:37:03;10.13;;;6.00;;
18166;SDS011;9208;42.688;23.404;2023-04-01T04:39:29;9.73;;;6.13;;
18166;SDS011;9208;42.688;23.404;2023-04-01T04:41:55;8.97;;;6.40;;
18166;SDS011;9208;42.688;23.404;2023-04-01T04:44:20;11.17;;;7.43;;
18166;SDS011;9208;42.688;23.404;2023-04-01T04:46:47;10.17;;;6.80;;
18166;SDS011;9208;42.688;23.404;2023-04-01T04:49:13;9.47;;;6.93;;
18166;SDS011;9208;42.688;23.404;2023-04-01T04:51:38;18.23;;;8.20;;
18166;SDS011;9208;42.688;23.404;2023-04-01T04:54:04;21.00;;;9.13;;
18166;SDS011;9208;42.688;23.404;2023-04-01T04:56:31;9.43;;;6.40;;
18166;SDS011;9208;42.688;23.404;2023-04-01T04:58:57;9.00;;;5.60;;
18166;SDS011;9208;42.688;23.404;2023-04-01T05:01:23;8.17;;;5.63;;
18166;SDS011;9208;42.688;23.404;2023-04-01T05:03:49;6.73;;;5.67;;
18166;SDS011;9208;42.688;23.404;2023-04-01T05:06:15;10.63;;;6.20;;
18166;SDS011;9208;42.688;23.404;2023-04-01T05:08:41;9.87;;;5.97;;
18166;SDS011;9208;42.688;23.404;2023-04-01T05:11:17;6.57;;;5.40;;
18166;SDS011;9208;42.688;23.404;2023-04-01T05:13:44;8.03;;;5.20;;
18166;SDS011;9208;42.688;23.404;2023-04-01T05:16:11;9.90;;;5.33;;
18166;SDS011;9208;42.688;23.404;2023-04-01T05:18:38;8.37;;;4.70;;
18166;SDS011;9208;42.688;23.404;2023-04-01T05:21:03;9.10;;;5.47;;
18166;SDS011;9208;42.688;23.404;2023-04-01T05:23:32;8.00;;;5.00;;
18166;SDS011;9208;42.688;23.404;2023-04-01T05:25:58;7.57;;;5.07;;
18166;SDS011;9208;42.688;23.404;2023-04-01T05:28:24;8.80;;;5.20;;
18166;SDS011;9208;42.688;23.404;2023-04-01T05:30:49;6.53;;;5.37;;
18166;SDS011;9208;42.688;23.404;2023-04-01T05:33:15;5.93;;;5.00;;
18166;SDS011;9208;42.688;23.404;2023-04-01T05:35:40;7.10;;;5.00;;
18166;SDS011;9208;42.688;23.404;2023-04-01T05:38:06;10.43;;;5.10;;
18166;SDS011;9208;42.688;23.404;2023-04-01T05:40:32;8.53;;;4.90;;
18166;SDS011;9208;42.688;23.404;2023-04-01T05:43:00;9.33;;;5.03;;
18166;SDS011;9208;42.688;23.404;2023-04-01T05:45:25;9.40;;;4.70;;
18166;SDS011;9208;42.688;23.404;2023-04-01T05:47:51;8.63;;;4.97;;
18166;SDS011;9208;42.688;23.404;2023-04-01T05:50:16;8.83;;;5.20;;
18166;SDS011;9208;42.688;23.404;2023-04-01T05:52:42;10.40;;;5.73;;
18166;SDS011;9208;42.688;23.404;2023-04-01T05:55:07;7.47;;;5.80;;
18166;SDS011;9208;42.688;23.404;2023-04-01T05:57:33;8.70;;;5.53;;
18166;SDS011;9208;42.688;23.404;2023-04-01T05:59:59;8.20;;;5.27;;
18166;SDS011;9208;42.688;23.404;2023-04-01T06:02:24;6.47;;;5.00;;
18166;SDS011;9208;42.688;23.404;2023-04-01T06:04:50;6.87;;;4.70;;
18166;SDS011;9208;42.688;23.404;2023-04-01T06:07:25;7.77;;;4.93;;
18166;SDS011;9208;42.688;23.404;2023-04-01T06:09:52;33.07;;;7.57;;
18166;SDS011;9208;42.688;23.404;2023-04-01T06:23:23;5.33;;;4.07;;
18166;SDS011;9208;42.688;23.404;2023-04-01T06:29:03;5.43;;;3.80;;
18166;SDS011;9208;42.688;23.404;2023-04-01T06:31:38;4.33;;;3.83;;
18166;SDS011;9208;42.688;23.404;2023-04-01T06:42:10;7.40;;;3.30;;
18166;SDS011;9208;42.688;23.404;2023-04-01T06:45:03;5.43;;;3.77;;
18166;SDS011;9208;42.688;23.404;2023-04-01T06:55:38;8.67;;;4.90;;
18166;SDS011;9208;42.688;23.404;2023-04-01T06:58:33;6.37;;;4.83;;
18166;SDS011;9208;42.688;23.404;2023-04-01T07:01:03;10.43;;;4.67;;
18166;SDS011;9208;42.688;23.404;2023-04-01T07:03:33;10.10;;;5.53;;
18166;SDS011;9208;42.688;23.404;2023-04-01T07:06:03;8.00;;;4.67;;
18166;SDS011;9208;42.688;23.404;2023-04-01T07:08:36;4.27;;;3.87;;
18166;SDS011;9208;42.688;23.404;2023-04-01T07:11:06;5.30;;;3.23;;
18166;SDS011;9208;42.688;23.404;2023-04-01T07:13:48;4.87;;;3.17;;
18166;SDS011;9208;42.688;23.404;2023-04-01T07:18:59;6.00;;;2.93;;
18166;SDS011;9208;42.688;23.404;2023-04-01T07:21:35;4.43;;;2.70;;
18166;SDS011;9208;42.688;23.404;2023-04-01T07:24:27;4.67;;;2.60;;
18166;SDS011;9208;42.688;23.404;2023-04-01T07:26:57;3.00;;;2.70;;
18166;SDS011;9208;42.688;23.404;2023-04-01T07:29:24;8.13;;;3.00;;
18166;SDS011;9208;42.688;23.404;2023-04-01T07:31:56;4.27;;;2.70;;
18166;SDS011;9208;42.688;23.404;2023-04-01T07:34:28;3.37;;;2.90;;
18166;SDS011;9208;42.688;23.404;2023-04-01T07:37:11;5.30;;;2.90;;
18166;SDS011;9208;42.688;23.404;2023-04-01T08:01:17;4.57;;;4.00;;
18166;SDS011;9208;42.688;23.404;2023-04-01T08:07:25;2.97;;;2.57;;
18166;SDS011;9208;42.688;23.404;2023-04-01T08:10:07;4.97;;;2.80;;
18166;SDS011;9208;42.688;23.404;2023-04-01T08:15:32;3.23;;;2.30;;
18166;SDS011;9208;42.688;23.404;2023-04-01T08:20:46;5.17;;;2.90;;
18166;SDS011;9208;42.688;23.404;2023-04-01T08:23:14;5.57;;;2.90;;
18166;SDS011;9208;42.688;23.404;2023-04-01T08:25:50;5.47;;;2.30;;
18166;SDS011;9208;42.688;23.404;2023-04-01T08:31:09;9.40;;;3.10;;
18166;SDS011;9208;42.688;23.404;2023-04-01T08:33:31;7.40;;;2.80;;
18166;SDS011;9208;42.688;23.404;2023-04-01T08:36:17;4.47;;;2.53;;
18166;SDS011;9208;42.688;23.404;2023-04-01T08:44:15;3.20;;;2.17;;
18166;SDS011;9208;42.688;23.404;2023-04-01T08:46:53;3.00;;;2.40;;
18166;SDS011;9208;42.688;23.404;2023-04-01T09:02:10;4.93;;;2.60;;
18166;SDS011;9208;42.688;23.404;2023-04-01T09:30:30;6.87;;;2.60;;
18166;SDS011;9208;42.688;23.404;2023-04-01T09:35:45;3.77;;;2.23;;
18166;SDS011;9208;42.688;23.404;2023-04-01T09:58:12;4.20;;;2.67;;
18166;SDS011;9208;42.688;23.404;2023-04-01T10:13:02;8.00;;;2.97;;
18166;SDS011;9208;42.688;23.404;2023-04-01T10:41:31;10.47;;;3.77;;
18166;SDS011;9208;42.688;23.404;2023-04-01T10:47:17;8.57;;;3.00;;
18166;SDS011;9208;42.688;23.404;2023-04-01T10:56:21;4.83;;;2.57;;
18166;SDS011;9208;42.688;23.404;2023-04-01T10:58:55;4.17;;;2.43;;
18166;SDS011;9208;42.688;23.404;2023-04-01T11:24:00;7.60;;;4.30;;
18166;SDS011;9208;42.688;23.404;2023-04-01T11:30:19;4.20;;;2.40;;
18166;SDS011;9208;42.688;23.404;2023-04-01T11:33:42;6.40;;;2.30;;
18166;SDS011;9208;42.688;23.404;2023-04-01T11:38:26;5.93;;;2.70;;
18166;SDS011;9208;42.688;23.404;2023-04-01T11:40:57;8.07;;;3.13;;
18166;SDS011;9208;42.688;23.404;2023-04-01T11:43:42;7.97;;;5.43;;
18166;SDS011;9208;42.688;23.404;2023-04-01T11:46:44;7.73;;;4.50;;
18166;SDS011;9208;42.688;23.404;2023-04-01T11:58:30;5.83;;;2.60;;
18166;SDS011;9208;42.688;23.404;2023-04-01T12:04:00;5.77;;;2.80;;
18166;SDS011;9208;42.688;23.404;2023-04-01T12:12:17;6.40;;;3.30;;
18166;SDS011;9208;42.688;23.404;2023-04-01T12:18:13;11.07;;;4.33;;
18166;SDS011;9208;42.688;23.404;2023-04-01T12:23:57;6.47;;;3.47;;
18166;SDS011;9208;42.688;23.404;2023-04-01T12:29:53;5.43;;;4.30;;
18166;SDS011;9208;42.688;23.404;2023-04-01T12:40:28;4.40;;;3.60;;
18166;SDS011;9208;42.688;23.404;2023-04-01T12:45:50;5.07;;;3.13;;
18166;SDS011;9208;42.688;23.404;2023-04-01T12:51:42;4.40;;;3.70;;
18166;SDS011;9208;42.688;23.404;2023-04-01T13:10:38;5.93;;;3.63;;
18166;SDS011;9208;42.688;23.404;2023-04-01T13:13:45;6.47;;;3.70;;
18166;SDS011;9208;42.688;23.404;2023-04-01T13:24:50;7.60;;;3.50;;
18166;SDS011;9208;42.688;23.404;2023-04-01T13:32:35;4.33;;;3.67;;
18166;SDS011;9208;42.688;23.404;2023-04-01T14:06:47;3.57;;;2.30;;
18166;SDS011;9208;42.688;23.404;2023-04-01T14:13:09;3.57;;;2.40;;
18166;SDS011;9208;42.688;23.404;2023-04-01T14:16:00;4.77;;;2.50;;
18166;SDS011;9208;42.688;23.404;2023-04-01T14:21:34;3.80;;;2.67;;
18166;SDS011;9208;42.688;23.404;2023-04-01T14:27:13;3.40;;;2.30;;
18166;SDS011;9208;42.688;23.404;2023-04-01T14:30:31;3.90;;;2.43;;
18166;SDS011;9208;42.688;23.404;2023-04-01T14:47:39;3.27;;;2.10;;
18166;SDS011;9208;42.688;23.404;2023-04-01T14:50:15;2.17;;;1.80;;
18166;SDS011;9208;42.688;23.404;2023-04-01T14:52:49;2.10;;;2.00;;
18166;SDS011;9208;42.688;23.404;2023-04-01T14:55:33;1.90;;;1.80;;
18166;SDS011;9208;42.688;23.404;2023-04-01T14:58:13;1.60;;;1.50;;
18166;SDS011;9208;42.688;23.404;2023-04-01T15:00:54;3.33;;;2.10;;
18166;SDS011;9208;42.688;23.404;2023-04-01T15:03:25;2.90;;;2.13;;
18166;SDS011;9208;42.688;23.404;2023-04-01T15:06:00;2.40;;;1.90;;
18166;SDS011;9208;42.688;23.404;2023-04-01T15:26:06;3.37;;;2.20;;
18166;SDS011;9208;42.688;23.404;2023-04-01T15:28:49;4.17;;;2.30;;
18166;SDS011;9208;42.688;23.404;2023-04-01T15:34:49;2.80;;;2.40;;
18166;SDS011;9208;42.688;23.404;2023-04-01T15:40:27;2.83;;;2.10;;
18166;SDS011;9208;42.688;23.404;2023-04-01T15:48:43;4.50;;;3.27;;
18166;SDS011;9208;42.688;23.404;2023-04-01T16:02:23;1.53;;;1.43;;
18166;SDS011;9208;42.688;23.404;2023-04-01T16:13:12;2.93;;;2.63;;
18166;SDS011;9208;42.688;23.404;2023-04-01T16:24:13;4.37;;;3.97;;
18166;SDS011;9208;42.688;23.404;2023-04-01T16:26:53;3.60;;;3.23;;
18166;SDS011;9208;42.688;23.404;2023-04-01T16:29:34;3.77;;;3.30;;
18166;SDS011;9208;42.688;23.404;2023-04-01T16:34:47;3.47;;;3.17;;
18166;SDS011;9208;42.688;23.404;2023-04-01T16:54:43;4.60;;;4.20;;
18166;SDS011;9208;42.688;23.404;2023-04-01T16:57:20;4.40;;;3.83;;
18166;SDS011;9208;42.688;23.404;2023-04-01T17:00:02;5.27;;;4.73;;
18166;SDS011;9208;42.688;23.404;2023-04-01T17:03:25;4.37;;;3.43;;
18166;SDS011;9208;42.688;23.404;2023-04-01T17:12:13;3.20;;;2.73;;
18166;SDS011;9208;42.688;23.404;2023-04-01T17:26:20;1.80;;;1.70;;
18166;SDS011;9208;42.688;23.404;2023-04-01T17:32:23;2.13;;;1.93;;
18166;SDS011;9208;42.688;23.404;2023-04-01T17:34:52;1.93;;;1.80;;
18166;SDS011;9208;42.688;23.404;2023-04-01T17:54:54;1.93;;;1.83;;
18166;SDS011;9208;42.688;23.404;2023-04-01T18:00:14;2.20;;;2.10;;
18166;SDS011;9208;42.688;23.404;2023-04-01T18:11:18;2.23;;;2.13;;
18166;SDS011;9208;42.688;23.404;2023-04-01T18:22:10;2.30;;;2.10;;
18166;SDS011;9208;42.688;23.404;2023-04-01T18:24:42;2.47;;;2.37;;
18166;SDS011;9208;42.688;23.404;2023-04-01T18:27:16;2.90;;;2.60;;
18166;SDS011;9208;42.688;23.404;2023-04-01T18:29:49;3.57;;;3.27;;
18166;SDS011;9208;42.688;23.404;2023-04-01T18:35:14;2.70;;;2.50;;
18166;SDS011;9208;42.688;23.404;2023-04-01T18:37:55;2.20;;;2.10;;
18166;SDS011;9208;42.688;23.404;2023-04-01T18:40:34;2.23;;;2.13;;
18166;SDS011;9208;42.688;23.404;2023-04-01T18:45:51;2.60;;;2.47;;
18166;SDS011;9208;42.688;23.404;2023-04-01T18:48:40;2.90;;;2.70;;
18166;SDS011;9208;42.688;23.404;2023-04-01T18:51:25;2.87;;;2.67;;
18166;SDS011;9208;42.688;23.404;2023-04-01T18:54:02;3.40;;;3.10;;
18166;SDS011;9208;42.688;23.404;2023-04-01T18:56:39;3.50;;;3.20;;
18166;SDS011;9208;42.688;23.404;2023-04-01T18:59:27;3.67;;;3.30;;
18166;SDS011;9208;42.688;23.404;2023-04-01T19:02:01;2.73;;;2.53;;
18166;SDS011;9208;42.688;23.404;2023-04-01T19:04:39;2.47;;;2.33;;
18166;SDS011;9208;42.688;23.404;2023-04-01T19:07:43;2.70;;;2.50;;
18166;SDS011;9208;42.688;23.404;2023-04-01T19:13:58;2.33;;;2.20;;
18166;SDS011;9208;42.688;23.404;2023-04-01T19:21:58;2.43;;;2.23;;
18166;SDS011;9208;42.688;23.404;2023-04-01T19:27:34;2.47;;;2.37;;
18166;SDS011;9208;42.688;23.404;2023-04-01T19:38:37;2.80;;;2.60;;
18166;SDS011;9208;42.688;23.404;2023-04-01T19:41:27;2.23;;;2.13;;
18166;SDS011;9208;42.688;23.404;2023-04-01T19:49:53;2.77;;;2.57;;
18166;SDS011;9208;42.688;23.404;2023-04-01T19:52:42;2.53;;;2.30;;
18166;SDS011;9208;42.688;23.404;2023-04-01T19:58:27;2.70;;;2.50;;
18166;SDS011;9208;42.688;23.404;2023-04-01T20:03:55;3.30;;;3.00;;
18166;SDS011;9208;42.688;23.404;2023-04-01T20:09:06;3.60;;;2.60;;
18166;SDS011;9208;42.688;23.404;2023-04-01T20:14:47;2.77;;;2.57;;
18166;SDS011;9208;42.688;23.404;2023-04-01T20:25:18;2.10;;;2.00;;
18166;SDS011;9208;42.688;23.404;2023-04-01T20:27:53;2.83;;;2.50;;
18166;SDS011;9208;42.688;23.404;2023-04-01T20:38:19;2.77;;;2.47;;
18166;SDS011;9208;42.688;23.404;2023-04-01T20:41:34;3.07;;;2.33;;
18166;SDS011;9208;42.688;23.404;2023-04-01T20:51:58;1.80;;;1.70;;
18166;SDS011;9208;42.688;23.404;2023-04-01T21:06:14;3.30;;;2.37;;
18166;SDS011;9208;42.688;23.404;2023-04-01T21:29:27;2.33;;;2.23;;
18166;SDS011;9208;42.688;23.404;2023-04-01T21:34:49;2.60;;;2.40;;
18166;SDS011;9208;42.688;23.404;2023-04-01T21:40:40;5.10;;;3.30;;
18166;SDS011;9208;42.688;23.404;2023-04-01T21:45:45;2.90;;;2.70;;
18166;SDS011;9208;42.688;23.404;2023-04-01T21:54:58;2.80;;;2.60;;
18166;SDS011;9208;42.688;23.404;2023-04-01T22:08:47;2.57;;;2.37;;
18166;SDS011;9208;42.688;23.404;2023-04-01T22:19:03;3.87;;;2.50;;
18166;SDS011;9208;42.688;23.404;2023-04-01T22:29:41;2.60;;;2.40;;
18166;SDS011;9208;42.688;23.404;2023-04-01T22:32:08;3.60;;;2.47;;
18166;SDS011;9208;42.688;23.404;2023-04-01T22:35:07;3.20;;;2.90;;
18166;SDS011;9208;42.688;23.404;2023-04-01T22:43:43;1.93;;;1.80;;
18166;SDS011;9208;42.688;23.404;2023-04-01T22:49:38;1.70;;;1.60;;
18166;SDS011;9208;42.688;23.404;2023-04-01T22:54:50;4.57;;;3.47;;
18166;SDS011;9208;42.688;23.404;2023-04-01T23:00:05;3.17;;;2.87;;
18166;SDS011;9208;42.688;23.404;2023-04-01T23:02:42;2.53;;;1.90;;
18166;SDS011;9208;42.688;23.404;2023-04-01T23:05:12;1.87;;;1.77;;
18166;SDS011;9208;42.688;23.404;2023-04-01T23:10:44;3.00;;;2.13;;
18166;SDS011;9208;42.688;23.404;2023-04-01T23:13:29;1.80;;;1.70;;
18166;SDS011;9208;42.688;23.404;2023-04-01T23:16:00;3.20;;;2.00;;
18166;SDS011;9208;42.688;23.404;2023-04-01T23:34:27;1.90;;;1.60;;
18166;SDS011;9208;42.688;23.404;2023-04-01T23:36:58;1.97;;;1.80;;
18166;SDS011;9208;42.688;23.404;2023-04-01T23:39:39;2.10;;;1.57;;
18166;SDS011;9208;42.688;23.404;2023-04-01T23:44:40;2.00;;;1.80;;
18166;SDS011;9208;42.688;23.404;2023-04-01T23:47:06;2.17;;;1.73;;
18166;SDS011;9208;42.688;23.404;2023-04-01T23:49:38;1.60;;;1.47;;
18166;SDS011;9208;42.688;23.404;2023-04-01T23:52:17;1.67;;;1.57;;
18166;SDS011;9208;42.688;23.404;2023-04-01T23:55:00;1.67;;;1.53;;
18166;SDS011;9208;42.688;23.404;2023-04-01T23:57:37;1.60;;;1.43;;
